Time;durP1;ratioP1;P1;durP2;ratioP2;P2;SDS_P1;SDS_P2;PMS_P1;PMS_P2;Temp;Humidity;BMP_temperature;BMP_pressure;BME280_temperature;BME280_humidity;BME280_pressure;Samples;Min_cycle;Max_cycle;Signal;HPM_P1;HPM_P2
2022/06/03 00:01:20;;;;;;;;;;;;;;;-140.72;100.00;52476.09;4948430;29;19918;-67
2022/06/03 00:04:04;;;;;;;;;;;;;;;-140.72;100.00;52508.56;4946519;28;19929;-67
2022/06/03 00:06:59;;;;;;;;;;;;;;;-140.72;100.00;52490.28;4965769;28;19973;-67
2022/06/03 00:09:36;;;;;;;;;;;;;;;-140.72;100.00;52476.09;4939987;28;19918;-68
2022/06/03 00:12:13;;;;;;;;;;;;;;;-140.72;100.00;52520.72;4962370;28;19918;-67
2022/06/03 00:14:54;;;;;;;;;;;;;;;-140.72;100.00;52500.44;4945391;28;19923;-67
2022/06/03 00:17:25;;;;;;;;;;;;;;;-140.72;100.00;52443.63;4936866;29;20290;-67
2022/06/03 00:19:53;;;;;;;;;;;;;;;-140.72;100.00;52467.97;4934674;29;19919;-67
2022/06/03 00:22:26;;;;;;;;;;;;;;;-140.72;100.00;52506.53;4931304;29;19919;-68
2022/06/03 00:25:07;;;;;;;;;;;;;;;-140.72;100.00;52449.72;4942607;29;19918;-67
2022/06/03 00:27:48;;;;;;;;;;;;;;;-140.72;100.00;52472.03;4927700;29;20288;-67
2022/06/03 00:30:22;;;;;;;;;;;;;;;-140.72;100.00;52427.38;4925354;29;19918;-67
2022/06/03 00:33:17;;;;;;;;;;;;;;;-140.72;100.00;52480.16;4942318;29;19926;-67
2022/06/03 00:35:54;;;;;;;;;;;;;;;-140.72;100.00;52484.19;4898459;29;20286;-68
2022/06/03 00:38:23;;;;;;;;;;;;;;;-140.72;100.00;52455.78;4943219;29;19919;-68
2022/06/03 00:40:58;;;;;;;;;;;;;;;-140.72;100.00;52510.59;4926952;29;19925;-67
2022/06/03 00:43:49;;;;;;;;;;;;;;;-140.72;100.00;52482.16;4943047;29;20007;-67
2022/06/03 00:46:21;;;;;;;;;;;;;;;-140.72;100.00;52482.16;4916343;29;19930;-67
2022/06/03 00:48:46;;;;;;;;;;;;;;;-140.72;100.00;52447.69;4927371;29;20013;-67
2022/06/03 00:51:17;;;;;;;;;;;;;;;-140.72;100.00;52506.53;4927000;29;19958;-67
2022/06/03 00:53:45;;;;;;;;;;;;;;;-140.72;100.00;52488.25;4932323;29;20015;-68
2022/06/03 00:56:29;;;;;;;;;;;;;;;-140.72;100.00;52439.56;4954767;29;19962;-66
2022/06/03 00:59:03;;;;;;;;;;;;;;;-140.72;100.00;52482.16;4945857;29;19919;-67
2022/06/03 01:01:38;;;;;;;;;;;;;;;-140.72;100.00;52508.56;4925999;29;19920;-67
2022/06/03 01:04:16;;;;;;;;;;;;;;;-140.72;100.00;52472.03;4946186;29;19919;-67
2022/06/03 01:06:41;;;;;;;;;;;;;;;-140.72;100.00;52492.31;4928816;29;20002;-67
2022/06/03 01:09:10;;;;;;;;;;;;;;;-140.72;100.00;52482.16;4958812;29;19954;-67
2022/06/03 01:11:36;;;;;;;;;;;;;;;-140.72;100.00;52476.09;4930609;29;19929;-67
2022/06/03 01:14:19;;;;;;;;;;;;;;;-140.72;100.00;52490.28;4951866;29;20341;-67
2022/06/03 01:17:16;;;;;;;;;;;;;;;-140.72;100.00;52443.63;4955257;29;19925;-68
2022/06/03 01:19:51;;;;;;;;;;;;;;;-140.72;100.00;52484.19;4899223;29;19925;-67
2022/06/03 01:22:29;;;;;;;;;;;;;;;-140.72;100.00;52476.09;4965073;29;19919;-67
2022/06/03 01:25:14;;;;;;;;;;;;;;;-140.72;100.00;52502.47;4944251;29;19962;-68
2022/06/03 01:27:41;;;;;;;;;;;;;;;-140.72;100.00;52467.97;4959157;29;19961;-67
2022/06/03 01:30:25;;;;;;;;;;;;;;;-140.72;100.00;52480.16;4955568;28;20527;-66
2022/06/03 01:33:13;;;;;;;;;;;;;;;-140.72;100.00;52467.97;4962056;29;19991;-67
2022/06/03 01:35:48;;;;;;;;;;;;;;;-140.72;100.00;52508.56;4892061;29;19969;-67
2022/06/03 01:38:26;;;;;;;;;;;;;;;-140.72;100.00;52467.97;4959009;28;19943;-67
2022/06/03 01:41:05;;;;;;;;;;;;;;;-140.72;100.00;52486.22;4937190;29;19919;-67
2022/06/03 01:43:36;;;;;;;;;;;;;;;-140.72;100.00;52437.53;4951132;29;20302;-68
2022/06/03 01:46:14;;;;;;;;;;;;;;;-140.72;100.00;52488.25;4969411;28;19995;-68
2022/06/03 01:48:57;;;;;;;;;;;;;;;-140.72;100.00;52474.06;4951581;28;19918;-68
2022/06/03 01:51:28;;;;;;;;;;;;;;;-140.72;100.00;52447.69;4950705;29;19919;-68
2022/06/03 01:54:02;;;;;;;;;;;;;;;-140.72;100.00;52476.09;4963394;29;19922;-67
2022/06/03 01:56:41;;;;;;;;;;;;;;;-140.72;100.00;52494.34;4963597;28;19978;-67
2022/06/03 01:59:21;;;;;;;;;;;;;;;-140.72;100.00;52500.44;4946709;29;19918;-68
2022/06/03 02:02:19;;;;;;;;;;;;;;;-140.72;100.00;52478.13;4946447;29;19918;-67
2022/06/03 02:04:47;;;;;;;;;;;;;;;-140.72;100.00;52476.09;4906148;29;20375;-68
2022/06/03 02:07:13;;;;;;;;;;;;;;;-140.72;100.00;52500.44;4956581;28;19922;-68
2022/06/03 02:09:40;;;;;;;;;;;;;;;-140.72;100.00;52484.19;4963140;29;19953;-68
2022/06/03 02:12:06;;;;;;;;;;;;;;;-140.72;100.00;52467.97;4963667;29;19970;-68
2022/06/03 02:14:50;;;;;;;;;;;;;;;-140.72;100.00;52506.53;4962489;28;19922;-67
2022/06/03 02:17:30;;;;;;;;;;;;;;;-140.72;100.00;52474.06;4961869;28;19923;-68
2022/06/03 02:20:05;;;;;;;;;;;;;;;-140.72;100.00;52508.56;4955192;29;19923;-68
2022/06/03 02:22:31;;;;;;;;;;;;;;;-140.72;100.00;52496.38;4945257;28;20458;-68
2022/06/03 02:25:09;;;;;;;;;;;;;;;-140.72;100.00;52459.84;4972737;28;19957;-68
2022/06/03 02:27:34;;;;;;;;;;;;;;;-140.72;100.00;52541.03;4954705;28;19926;-67
2022/06/03 02:30:27;;;;;;;;;;;;;;;-140.72;100.00;52480.16;4950972;29;19941;-68
2022/06/03 02:40:41;;;;;;;;;;;;;;;-140.72;100.00;52500.44;5015344;23;20301;-68
2022/06/03 02:43:35;;;;;;;;;;;;;;;-140.72;100.00;52484.19;4975007;28;20083;-69
2022/06/03 02:46:27;;;;;;;;;;;;;;;-140.72;100.00;52459.84;4989423;28;19949;-67
2022/06/03 02:49:11;;;;;;;;;;;;;;;-140.72;100.00;52516.66;4968279;28;20400;-67
2022/06/03 02:51:36;;;;;;;;;;;;;;;-140.72;100.00;52504.50;4975376;28;19918;-67
2022/06/03 02:54:28;;;;;;;;;;;;;;;-140.72;100.00;52470.00;4975025;28;19985;-67
2022/06/03 02:56:59;;;;;;;;;;;;;;;-140.72;100.00;52520.72;4975984;28;19970;-67
2022/06/03 02:59:57;;;;;;;;;;;;;;;-140.72;100.00;52453.75;4972542;28;19918;-69
2022/06/03 03:02:23;;;;;;;;;;;;;;;-140.72;100.00;52459.84;4936706;28;19998;-67
2022/06/03 03:04:54;;;;;;;;;;;;;;;-140.72;100.00;52504.50;4983354;28;19926;-68
2022/06/03 03:07:19;;;;;;;;;;;;;;;-140.72;100.00;52498.41;4979084;28;19925;-70
2022/06/03 03:09:59;;;;;;;;;;;;;;;-140.72;100.00;52496.38;4983640;28;19918;-67
2022/06/03 03:12:32;;;;;;;;;;;;;;;-140.72;100.00;52480.16;4971776;28;19954;-67
2022/06/03 03:15:19;;;;;;;;;;;;;;;-140.72;100.00;52488.25;4977981;28;19918;-67
2022/06/03 03:17:47;;;;;;;;;;;;;;;-140.72;100.00;52541.03;4982483;28;19922;-67
2022/06/03 03:20:31;;;;;;;;;;;;;;;-140.72;100.00;52447.69;4970928;28;19974;-67
2022/06/03 03:23:02;;;;;;;;;;;;;;;-140.72;100.00;52541.03;4972861;28;20263;-67
2022/06/03 03:25:37;;;;;;;;;;;;;;;-140.72;100.00;52524.78;4980784;28;19997;-68
2022/06/03 03:28:08;;;;;;;;;;;;;;;-140.72;100.00;52486.22;4966401;28;19925;-66
2022/06/03 03:30:39;;;;;;;;;;;;;;;-140.72;100.00;52528.84;4969606;28;19992;-67
2022/06/03 03:33:20;;;;;;;;;;;;;;;-140.72;100.00;52482.16;4972006;28;19918;-67
2022/06/03 03:35:54;;;;;;;;;;;;;;;-140.72;100.00;52534.94;4975096;28;20289;-67
2022/06/03 03:38:26;;;;;;;;;;;;;;;-140.72;100.00;52496.38;4955649;29;19919;-67
2022/06/03 03:40:57;;;;;;;;;;;;;;;-140.72;100.00;52516.66;4969914;29;19918;-66
2022/06/03 03:43:45;;;;;;;;;;;;;;;-140.72;100.00;52520.72;4951810;29;21119;-67
2022/06/03 03:46:29;;;;;;;;;;;;;;;-140.72;100.00;52512.59;4965489;29;19925;-68
2022/06/03 03:49:13;;;;;;;;;;;;;;;-140.72;100.00;52532.91;4969098;28;20009;-66
2022/06/03 03:51:45;;;;;;;;;;;;;;;-140.72;100.00;52504.50;4951483;29;19922;-67
2022/06/03 03:54:29;;;;;;;;;;;;;;;-140.72;100.00;52510.59;4940486;28;19944;-68
2022/06/03 03:57:20;;;;;;;;;;;;;;;-140.72;100.00;52496.38;4956515;28;19919;-67
2022/06/03 03:59:59;;;;;;;;;;;;;;;-140.72;100.00;52512.59;4948472;28;19918;-69
2022/06/03 04:02:28;;;;;;;;;;;;;;;-140.72;100.00;52520.72;4968311;28;19919;-66
2022/06/03 04:05:12;;;;;;;;;;;;;;;-140.72;100.00;52516.66;4951197;28;19918;-66
2022/06/03 04:07:56;;;;;;;;;;;;;;;-140.72;100.00;52553.19;4967338;28;19929;-67
2022/06/03 04:10:30;;;;;;;;;;;;;;;-140.72;100.00;52516.66;4949353;29;19919;-67
2022/06/03 04:13:14;;;;;;;;;;;;;;;-140.72;100.00;52526.81;4965239;28;19922;-67
2022/06/03 04:16:06;;;;;;;;;;;;;;;-140.72;100.00;52553.19;4963215;28;19918;-68
2022/06/03 04:18:50;;;;;;;;;;;;;;;-140.72;100.00;52484.19;4949643;29;19919;-68
2022/06/03 04:21:34;;;;;;;;;;;;;;;-140.72;100.00;52536.97;4960323;28;19925;-70
2022/06/03 04:24:02;;;;;;;;;;;;;;;-140.72;100.00;52474.06;4943733;29;19982;-69
2022/06/03 04:26:46;;;;;;;;;;;;;;;-140.72;100.00;52539.00;4943375;29;19922;-68
2022/06/03 04:29:35;;;;;;;;;;;;;;;-140.72;100.00;52502.47;4961199;28;19919;-68
2022/06/03 04:32:04;;;;;;;;;;;;;;;-140.72;100.00;52500.44;4944264;29;19926;-68
2022/06/03 04:34:35;;;;;;;;;;;;;;;-140.72;100.00;52490.28;4940999;29;19918;-68
2022/06/03 04:37:24;;;;;;;;;;;;;;;-140.72;100.00;52530.88;4956969;28;20341;-69
2022/06/03 04:40:08;;;;;;;;;;;;;;;-140.72;100.00;52510.59;4952852;29;19965;-68
2022/06/03 04:42:51;;;;;;;;;;;;;;;-140.72;100.00;52496.38;4967839;28;19968;-67
2022/06/03 04:45:16;;;;;;;;;;;;;;;-140.72;100.00;52482.16;4959642;28;19976;-69
2022/06/03 04:47:42;;;;;;;;;;;;;;;-140.72;100.00;52508.56;4959751;28;19918;-68
2022/06/03 04:50:38;;;;;;;;;;;;;;;-140.72;100.00;52516.66;4962442;28;20606;-68
2022/06/03 04:53:22;;;;;;;;;;;;;;;-140.72;100.00;52508.56;4958607;28;19918;-69
2022/06/03 04:56:05;;;;;;;;;;;;;;;-140.72;100.00;52504.50;4945348;28;19933;-70
2022/06/03 04:58:49;;;;;;;;;;;;;;;-140.72;100.00;52528.84;4944838;29;19918;-69
2022/06/03 05:01:41;;;;;;;;;;;;;;;-140.72;100.00;52488.25;4962408;28;19998;-67
2022/06/03 05:04:38;;;;;;;;;;;;;;;-140.72;100.00;52488.25;4958676;28;19923;-70
2022/06/03 05:07:07;;;;;;;;;;;;;;;-140.72;100.00;52480.16;4935887;28;19974;-69
2022/06/03 05:09:55;;;;;;;;;;;;;;;-140.72;100.00;52490.28;4966000;28;20018;-67
2022/06/03 05:12:20;;;;;;;;;;;;;;;-140.72;100.00;52470.00;4949857;29;19919;-69
2022/06/03 05:14:59;;;;;;;;;;;;;;;-140.72;100.00;52504.50;4942159;29;20441;-68
2022/06/03 05:17:24;;;;;;;;;;;;;;;-140.72;100.00;52480.16;4965316;28;19918;-67
2022/06/03 05:19:56;;;;;;;;;;;;;;;-140.72;100.00;52451.72;4982868;28;19950;-67
2022/06/03 05:22:31;;;;;;;;;;;;;;;-140.72;100.00;52488.25;4967439;28;19977;-67
2022/06/03 05:25:11;;;;;;;;;;;;;;;-140.72;100.00;52516.66;4966410;28;19919;-68
2022/06/03 05:27:39;;;;;;;;;;;;;;;-140.72;100.00;52453.75;4947226;29;19934;-67
2022/06/03 05:30:13;;;;;;;;;;;;;;;-140.72;100.00;52478.13;4955779;29;19975;-68
2022/06/03 05:33:02;;;;;;;;;;;;;;;-140.72;100.00;52488.25;4963243;28;19918;-68
2022/06/03 05:35:42;;;;;;;;;;;;;;;-140.72;100.00;52492.31;4960435;28;19929;-67
2022/06/03 05:38:26;;;;;;;;;;;;;;;-140.72;100.00;52445.66;4938341;29;19918;-67
2022/06/03 05:42:23;;;;;;;;;;;;;;;-140.72;100.00;52484.19;4966589;28;19923;-67
2022/06/03 05:44:09;;;;;;;;;;;;;;;-140.72;100.00;52467.97;4956977;28;19926;-68
2022/06/03 05:46:45;;;;;;;;;;;;;;;-140.72;100.00;52476.09;4964948;28;19937;-68
2022/06/03 05:49:16;;;;;;;;;;;;;;;-140.72;100.00;52478.13;4952200;29;19924;-69
2022/06/03 05:51:58;;;;;;;;;;;;;;;-140.72;100.00;52451.72;4968646;28;20286;-67
2022/06/03 05:54:32;;;;;;;;;;;;;;;-140.72;100.00;52484.19;4969611;28;19922;-67
2022/06/03 05:57:06;;;;;;;;;;;;;;;-140.72;100.00;52411.16;4970103;28;19933;-67
2022/06/03 05:59:35;;;;;;;;;;;;;;;-140.72;100.00;52457.81;4970867;28;19945;-67
2022/06/03 06:02:24;;;;;;;;;;;;;;;-140.72;100.00;52453.75;4968919;28;19918;-67
2022/06/03 06:05:08;;;;;;;;;;;;;;;-140.72;100.00;52457.81;4952744;29;19923;-67
2022/06/03 06:07:44;;;;;;;;;;;;;;;-140.72;100.00;52437.53;4953590;29;20017;-68
2022/06/03 06:10:13;;;;;;;;;;;;;;;-140.72;100.00;52411.16;4969890;29;19937;-67
2022/06/03 06:12:41;;;;;;;;;;;;;;;-140.72;100.00;52451.72;4953957;29;19919;-67
2022/06/03 06:15:16;;;;;;;;;;;;;;;-140.72;100.00;52431.44;4969354;29;19918;-67
2022/06/03 06:17:47;;;;;;;;;;;;;;;-140.72;100.00;52396.94;4968073;28;19918;-67
2022/06/03 06:20:15;;;;;;;;;;;;;;;-140.72;100.00;52453.75;4952137;29;20013;-68
2022/06/03 06:22:46;;;;;;;;;;;;;;;-140.72;100.00;52415.22;4969372;28;19918;-67
2022/06/03 06:25:25;;;;;;;;;;;;;;;-140.72;100.00;52449.72;4970325;28;19929;-66
2022/06/03 06:27:57;;;;;;;;;;;;;;;-140.72;100.00;52431.44;4950852;29;19946;-68
2022/06/03 06:30:55;;;;;;;;;;;;;;;-140.72;100.00;52431.44;4969588;29;19919;-68
2022/06/03 06:33:21;;;;;;;;;;;;;;;-140.72;100.00;52451.72;4955575;28;19966;-67
2022/06/03 06:35:49;;;;;;;;;;;;;;;-140.72;100.00;52419.28;4965780;28;19922;-67
2022/06/03 06:38:33;;;;;;;;;;;;;;;-140.72;100.00;52413.19;4950759;29;19941;-66
2022/06/03 06:41:17;;;;;;;;;;;;;;;-140.72;100.00;52427.38;4968665;28;19962;-66
2022/06/03 06:43:45;;;;;;;;;;;;;;;-140.72;100.00;52360.44;4942602;29;19919;-67
2022/06/03 06:46:11;;;;;;;;;;;;;;;-140.72;100.00;52392.88;4951404;28;19929;-66
2022/06/03 06:48:36;;;;;;;;;;;;;;;-140.72;100.00;52376.66;4969451;28;19990;-66
2022/06/03 06:51:20;;;;;;;;;;;;;;;-140.72;100.00;52403.03;4951391;28;19923;-67
2022/06/03 06:53:53;;;;;;;;;;;;;;;-140.72;100.00;52374.63;4952348;29;19953;-67
2022/06/03 06:56:25;;;;;;;;;;;;;;;-140.72;100.00;52407.09;4951492;28;19919;-67
2022/06/03 06:59:22;;;;;;;;;;;;;;;-140.72;100.00;52421.28;4969222;28;19922;-68
2022/06/03 07:01:53;;;;;;;;;;;;;;;-140.72;100.00;52366.50;4940402;29;19918;-67
2022/06/03 07:04:23;;;;;;;;;;;;;;;-140.72;100.00;52396.94;4969668;29;19919;-67
2022/06/03 07:06:49;;;;;;;;;;;;;;;-140.72;100.00;52398.97;4968685;28;19918;-68
2022/06/03 07:09:29;;;;;;;;;;;;;;;-140.72;100.00;52370.56;4951509;29;19929;-67
2022/06/03 07:12:03;;;;;;;;;;;;;;;-140.72;100.00;52405.06;4968939;28;19918;-68
2022/06/03 07:14:30;;;;;;;;;;;;;;;-140.72;100.00;52386.81;4968526;28;19925;-66
2022/06/03 07:19:54;;;;;;;;;;;;;;;-140.72;100.00;52407.09;4969201;28;20021;-66
2022/06/03 07:22:32;;;;;;;;;;;;;;;-140.72;100.00;52390.84;4966144;29;20374;-69
2022/06/03 07:25:03;;;;;;;;;;;;;;;-140.72;100.00;52362.44;4961504;28;19922;-69
2022/06/03 07:27:31;;;;;;;;;;;;;;;-140.72;100.00;52346.22;4942598;29;19962;-68
2022/06/03 07:30:17;;;;;;;;;;;;;;;-140.72;100.00;52358.41;4972030;28;20066;-67
2022/06/03 07:32:47;;;;;;;;;;;;;;;-140.72;100.00;52334.03;4952211;28;19928;-70
2022/06/03 07:35:24;;;;;;;;;;;;;;;-140.72;100.00;52354.34;4957068;28;19929;-71
2022/06/03 07:38:00;;;;;;;;;;;;;;;-140.72;100.00;52346.22;4947969;28;20406;-69
2022/06/03 07:40:38;;;;;;;;;;;;;;;-140.72;100.00;52321.88;4958864;28;20374;-70
2022/06/03 07:43:27;;;;;;;;;;;;;;;-140.72;100.00;52364.47;4958892;28;19923;-70
2022/06/03 07:45:58;;;;;;;;;;;;;;;-140.72;100.00;52299.56;4945471;28;19922;-70
2022/06/03 07:48:26;;;;;;;;;;;;;;;-140.72;100.00;52348.25;4965967;28;19918;-69
2022/06/03 07:50:59;;;;;;;;;;;;;;;-140.72;100.00;52327.97;4944570;28;19967;-70
2022/06/03 07:53:24;;;;;;;;;;;;;;;-140.72;100.00;52303.59;4941567;29;19926;-70
2022/06/03 07:55:54;;;;;;;;;;;;;;;-140.72;100.00;52311.72;4956924;28;19918;-69
2022/06/03 07:58:20;;;;;;;;;;;;;;;-140.72;100.00;52309.69;4955966;28;19954;-70
2022/06/03 08:00:46;;;;;;;;;;;;;;;-140.72;100.00;52289.41;4954589;28;19926;-74
2022/06/03 08:03:13;;;;;;;;;;;;;;;-140.72;100.00;52289.41;4950553;28;19922;-68
2022/06/03 08:05:39;;;;;;;;;;;;;;;-140.72;100.00;52244.78;4947215;28;19923;-70
2022/06/03 08:10:56;;;;;;;;;;;;;;;-140.72;100.00;52289.41;4957377;28;19925;-69
2022/06/03 08:13:22;;;;;;;;;;;;;;;-140.72;100.00;52311.72;4957771;28;19949;-69
2022/06/03 08:15:50;;;;;;;;;;;;;;;-140.72;100.00;52281.28;4939557;28;20010;-68
2022/06/03 08:18:17;;;;;;;;;;;;;;;-140.72;100.00;52277.22;4950485;28;19926;-70
2022/06/03 08:20:47;;;;;;;;;;;;;;;-140.72;100.00;52240.72;4946417;29;19936;-69
2022/06/03 08:23:14;;;;;;;;;;;;;;;-140.72;100.00;52269.13;4933528;29;19919;-69
2022/06/03 08:25:41;;;;;;;;;;;;;;;-140.72;100.00;52236.66;4937410;28;19923;-69
2022/06/03 08:28:09;;;;;;;;;;;;;;;-140.72;100.00;52202.16;4934083;29;19927;-69
2022/06/03 08:30:34;;;;;;;;;;;;;;;-140.72;100.00;52224.47;4950515;29;20310;-68
2022/06/03 08:33:08;;;;;;;;;;;;;;;-140.72;100.00;52157.53;4947868;28;19918;-69
2022/06/03 08:35:38;;;;;;;;;;;;;;;-140.72;100.00;52212.31;4934420;29;19929;-69
2022/06/03 08:38:04;;;;;;;;;;;;;;;-140.72;100.00;52165.63;4929817;29;19918;-69
2022/06/03 08:40:35;;;;;;;;;;;;;;;-140.72;100.00;52151.44;4948911;28;20405;-70
2022/06/03 08:43:00;;;;;;;;;;;;;;;-140.72;100.00;52196.06;4948341;28;19930;-72
2022/06/03 08:45:45;;;;;;;;;;;;;;;-140.72;100.00;52179.84;4951598;29;19922;-70
2022/06/03 08:48:12;;;;;;;;;;;;;;;-140.72;100.00;52153.47;4951156;29;20020;-70
2022/06/03 08:50:57;;;;;;;;;;;;;;;-140.72;100.00;52129.13;4950139;29;19998;-70
2022/06/03 08:53:29;;;;;;;;;;;;;;;-140.72;100.00;52143.31;4949741;28;20024;-70
2022/06/03 08:56:03;;;;;;;;;;;;;;;-140.72;100.00;52153.47;4951725;29;19919;-71
2022/06/03 08:58:42;;;;;;;;;;;;;;;-140.72;100.00;52137.22;4951796;28;19925;-68
2022/06/03 09:01:14;;;;;;;;;;;;;;;-140.72;100.00;52127.09;4952116;28;19927;-69
2022/06/03 09:03:46;;;;;;;;;;;;;;;-140.72;100.00;52131.16;4951903;28;20501;-71
2022/06/03 09:06:14;;;;;;;;;;;;;;;-140.72;100.00;52056.06;4950544;28;20277;-70
2022/06/03 09:08:51;;;;;;;;;;;;;;;-140.72;100.00;52072.31;4957400;28;19930;-70
2022/06/03 09:11:26;;;;;;;;;;;;;;;-140.72;100.00;52070.28;4956702;28;20295;-70
2022/06/03 09:13:57;;;;;;;;;;;;;;;-140.72;100.00;52088.53;4955717;29;20050;-69
2022/06/03 09:16:25;;;;;;;;;;;;;;;-140.72;100.00;52060.13;4935970;29;19925;-70
2022/06/03 09:19:17;;;;;;;;;;;;;;;-140.72;100.00;52025.63;4954344;29;20021;-69
2022/06/03 09:21:44;;;;;;;;;;;;;;;-140.72;100.00;52003.31;4947067;28;20016;-69
2022/06/03 09:24:15;;;;;;;;;;;;;;;-140.72;100.00;52023.59;4953412;28;20017;-70
2022/06/03 09:26:45;;;;;;;;;;;;;;;-140.72;100.00;51983.03;4954783;29;19981;-69
2022/06/03 09:29:12;;;;;;;;;;;;;;;-140.72;100.00;51993.19;4937148;29;19933;-69
2022/06/03 09:31:38;;;;;;;;;;;;;;;-140.72;100.00;51999.25;4952008;28;20397;-68
2022/06/03 09:34:06;;;;;;;;;;;;;;;-140.72;100.00;51934.34;4955012;28;19925;-70
2022/06/03 09:36:32;;;;;;;;;;;;;;;-140.72;100.00;51926.22;4937828;28;19926;-68
2022/06/03 09:39:00;;;;;;;;;;;;;;;-140.72;100.00;51952.59;4955224;28;19930;-69
2022/06/03 09:41:28;;;;;;;;;;;;;;;-140.72;100.00;51944.47;4955237;28;19919;-68
2022/06/03 09:43:55;;;;;;;;;;;;;;;-140.72;100.00;51887.66;4954324;28;19926;-69
2022/06/03 09:46:21;;;;;;;;;;;;;;;-140.72;100.00;51887.66;4936723;29;20259;-68
2022/06/03 09:48:47;;;;;;;;;;;;;;;-140.72;100.00;51871.44;4937664;29;19929;-69
2022/06/03 09:51:55;;;;;;;;;;;;;;;-140.72;100.00;51899.84;4956187;28;19950;-69
2022/06/03 09:54:11;;;;;;;;;;;;;;;-140.72;100.00;51899.84;4953612;28;19927;-70
2022/06/03 09:56:37;;;;;;;;;;;;;;;-140.72;100.00;51826.81;4935284;29;20018;-69
2022/06/03 09:59:02;;;;;;;;;;;;;;;-140.72;100.00;51826.81;4954936;28;19925;-69
2022/06/03 10:01:28;;;;;;;;;;;;;;;-140.72;100.00;51843.03;4951523;28;19918;-70
2022/06/03 10:03:59;;;;;;;;;;;;;;;-140.72;100.00;51861.28;4936513;29;19918;-69
2022/06/03 10:14:36;;;;;;;;;;;;;;;-140.72;100.00;51778.13;4953868;28;20254;-70
2022/06/03 10:17:11;;;;;;;;;;;;;;;-140.72;100.00;51761.88;4951396;28;19919;-69
2022/06/03 10:19:36;;;;;;;;;;;;;;;-140.72;100.00;51753.78;4953992;29;19930;-69
2022/06/03 10:22:06;;;;;;;;;;;;;;;-140.72;100.00;51717.25;4954023;29;20393;-69
2022/06/03 10:24:32;;;;;;;;;;;;;;;-140.72;100.00;51705.06;4952751;28;19922;-69
2022/06/03 10:27:01;;;;;;;;;;;;;;;-140.72;100.00;51723.34;4957408;28;20329;-71
2022/06/03 10:29:27;;;;;;;;;;;;;;;-140.72;100.00;51690.88;4954072;29;20312;-69
2022/06/03 10:31:54;;;;;;;;;;;;;;;-140.72;100.00;51696.97;4954383;28;19918;-68
2022/06/03 10:34:24;;;;;;;;;;;;;;;-140.72;100.00;51727.41;4935352;29;19922;-69
2022/06/03 10:36:51;;;;;;;;;;;;;;;-140.72;100.00;51727.41;4934103;29;20438;-69
2022/06/03 10:39:18;;;;;;;;;;;;;;;-140.72;100.00;51713.19;4929414;28;19950;-68
2022/06/03 10:41:51;;;;;;;;;;;;;;;-140.72;100.00;51729.44;4954028;28;19918;-70
2022/06/03 10:44:17;;;;;;;;;;;;;;;-140.72;100.00;51672.63;4953028;29;20326;-71
2022/06/03 10:46:57;;;;;;;;;;;;;;;-140.72;100.00;51674.66;4953960;29;19919;-70
2022/06/03 10:49:23;;;;;;;;;;;;;;;-140.72;95.54;51658.41;4951467;29;20009;-70
2022/06/03 11:02:49;;;;;;;;;;;;;;;-140.72;90.79;51615.81;4953138;28;20389;-71
2022/06/03 11:05:25;;;;;;;;;;;;;;;-140.72;83.12;51646.25;4934418;29;19927;-71
2022/06/03 11:07:56;;;;;;;;;;;;;;;-140.72;88.14;51591.47;4954294;28;20370;-72
2022/06/03 11:10:26;;;;;;;;;;;;;;;-140.72;81.47;51595.53;4955472;28;20290;-72
2022/06/03 11:12:57;;;;;;;;;;;;;;;-140.72;76.03;51605.66;4954580;28;19929;-73
2022/06/03 11:15:31;;;;;;;;;;;;;;;-140.72;81.04;51625.97;4953220;29;19933;-73
2022/06/03 11:17:58;;;;;;;;;;;;;;;-140.72;90.45;51656.38;4957399;28;19923;-72
2022/06/03 11:20:34;;;;;;;;;;;;;;;-140.72;89.16;51709.13;4960192;28;19918;-73
2022/06/03 11:23:01;;;;;;;;;;;;;;;-140.72;81.36;51619.88;4952533;28;19926;-72
2022/06/03 11:25:28;;;;;;;;;;;;;;;-140.72;86.89;51599.59;4954771;28;19923;-73
2022/06/03 11:28:08;;;;;;;;;;;;;;;-140.72;77.90;51605.66;4948901;28;20338;-76
2022/06/03 11:30:44;;;;;;;;;;;;;;;-140.72;81.41;51615.81;4933067;29;20313;-72
2022/06/03 11:33:27;;;;;;;;;;;;;;;-140.72;75.28;51597.56;4925888;28;19925;-74
2022/06/03 11:36:07;;;;;;;;;;;;;;;-140.72;78.16;51611.75;4954696;29;19918;-73
2022/06/03 11:38:41;;;;;;;;;;;;;;;-140.72;82.54;51581.31;4943056;28;19919;-69
2022/06/03 11:41:11;;;;;;;;;;;;;;;-140.72;76.12;51552.94;4936186;29;19958;-69
2022/06/03 11:43:48;;;;;;;;;;;;;;;-140.72;71.73;51569.16;4954746;29;19919;-70
2022/06/03 11:46:16;;;;;;;;;;;;;;;-140.72;78.63;51583.34;4949352;28;20457;-70
2022/06/03 11:48:43;;;;;;;;;;;;;;;-140.72;74.03;51597.56;4952960;29;19928;-70
2022/06/03 11:51:09;;;;;;;;;;;;;;;-140.72;79.59;51587.41;4936738;29;19973;-71
2022/06/03 11:53:37;;;;;;;;;;;;;;;-140.72;77.12;51575.25;4948146;29;19918;-68
2022/06/03 11:56:03;;;;;;;;;;;;;;;-140.72;73.91;51591.47;4956202;28;19926;-70
2022/06/03 11:58:38;;;;;;;;;;;;;;;-140.72;73.23;51634.06;4950383;28;19923;-74
2022/06/03 12:01:07;;;;;;;;;;;;;;;-140.72;83.67;51670.59;4945004;28;20017;-69
2022/06/03 12:03:32;;;;;;;;;;;;;;;-140.72;88.22;51644.22;4955629;28;19965;-69
2022/06/03 12:06:05;;;;;;;;;;;;;;;-140.72;81.09;51709.13;4931265;28;19926;-70
2022/06/03 12:08:41;;;;;;;;;;;;;;;-140.72;84.55;51619.88;4946808;28;19919;-70
2022/06/03 12:13:14;;;;;;;;;;;;;;;-140.72;89.71;51666.53;4942002;28;19945;-70
2022/06/03 12:14:10;;;;;;;;;;;;;;;-140.72;77.89;51632.03;4950598;28;19961;-70
2022/06/03 12:16:53;;;;;;;;;;;;;;;-140.72;75.15;51552.94;4953045;28;19925;-69
2022/06/03 12:19:34;;;;;;;;;;;;;;;-140.72;74.84;51581.31;4956643;28;19922;-70
2022/06/03 12:22:15;;;;;;;;;;;;;;;-140.72;75.16;51615.81;4953789;28;19922;-69
2022/06/03 12:24:41;;;;;;;;;;;;;;;-140.72;73.74;51587.41;4954591;28;19922;-70
2022/06/03 12:27:11;;;;;;;;;;;;;;;-140.72;73.83;51593.50;4955031;28;20386;-71
2022/06/03 12:29:41;;;;;;;;;;;;;;;-140.72;76.27;51605.66;4957920;28;19922;-72
2022/06/03 12:32:16;;;;;;;;;;;;;;;-140.72;75.05;51587.41;4943758;28;19925;-71
2022/06/03 12:34:42;;;;;;;;;;;;;;;-140.72;89.27;51646.25;4958031;28;19928;-70
2022/06/03 12:37:24;;;;;;;;;;;;;;;-140.72;86.37;51727.41;4943773;29;20266;-70
2022/06/03 12:39:50;;;;;;;;;;;;;;;-140.72;83.68;51707.09;4957616;28;19929;-70
2022/06/03 12:42:27;;;;;;;;;;;;;;;-140.72;98.07;51676.69;4964155;28;20002;-71
2022/06/03 12:44:56;;;;;;;;;;;;;;;-140.72;84.39;51648.28;4955499;28;20405;-70
2022/06/03 12:47:23;;;;;;;;;;;;;;;-140.72;90.54;51660.44;4948955;28;20027;-70
2022/06/03 12:49:51;;;;;;;;;;;;;;;-140.72;87.70;51640.16;4954597;28;19922;-70
2022/06/03 12:52:16;;;;;;;;;;;;;;;-140.72;85.27;51632.03;4949858;28;19930;-71
2022/06/03 12:54:50;;;;;;;;;;;;;;;-140.72;87.59;51636.09;4952361;28;19923;-70
2022/06/03 12:57:26;;;;;;;;;;;;;;;-140.72;78.02;51599.59;4937371;28;20010;-70
2022/06/03 12:59:55;;;;;;;;;;;;;;;-140.72;80.67;51563.06;4955447;28;19933;-69
2022/06/03 13:02:26;;;;;;;;;;;;;;;-140.72;83.06;51636.09;4953893;28;19922;-70
2022/06/03 13:04:54;;;;;;;;;;;;;;;-140.72;75.79;51650.31;4954020;29;19937;-70
2022/06/03 13:07:25;;;;;;;;;;;;;;;-140.72;77.77;51707.09;4956582;29;19925;-70
2022/06/03 13:09:52;;;;;;;;;;;;;;;-140.72;85.38;51684.78;4933969;29;19922;-71
2022/06/03 13:12:20;;;;;;;;;;;;;;;-140.72;81.90;51753.78;4939501;29;19922;-70
2022/06/03 13:14:45;;;;;;;;;;;;;;;-140.72;92.66;51782.16;4939044;29;19974;-69
2022/06/03 13:17:30;;;;;;;;;;;;;;;-140.72;98.19;51774.06;4940308;28;19927;-70
2022/06/03 13:19:58;;;;;;;;;;;;;;;-140.72;97.02;51765.94;4960673;29;19992;-72
2022/06/03 13:22:26;;;;;;;;;;;;;;;-140.72;91.85;51733.47;4959553;28;20021;-76
2022/06/03 13:25:10;;;;;;;;;;;;;;;-140.72;87.23;51707.09;4942966;29;19933;-71
2022/06/03 13:27:35;;;;;;;;;;;;;;;-140.72;80.38;51686.81;4961584;29;20433;-74